Villa Serena, Puerto Rico
Current Conditions -  °F | °C
As of 1:56 PM on Saturday 25 Oct 2014 (Local Time) from TJSJ Reporting Station
Scattered Clouds Scattered Clouds  
Wind Chill: 91°   Ceiling: Unl
Heat Index: 99°   Visibility: 10mi
Dew Point: 73°   Wind: 5mph
Humidity: 55%   Direction: NA
Pressure: 29.85"   Gusts: NA
Location:  17.9676°N, 66.4046°W
Report Text: TJSJ 251756Z VRB04KT 10SM FEW044 SCT050 SCT120 33/23 A2985 RMK AO2 SLP108 60003 T03280228 10333 20283 58027
Loading
Personal Weather Stations






























Interactive Weather Map
Tropical Storm Tracking
New forecast layout! Learn more

10-Day Weather Forecast

Advertisements
Track Severe Weather on mobile